Time;durP1;ratioP1;P1;durP2;ratioP2;P2;SDS_P1;SDS_P2;PMS_P1;PMS_P2;Temp;Humidity;BMP_temperature;BMP_pressure;BME280_temperature;BME280_humidity;BME280_pressure;Samples;Min_cycle;Max_cycle;Signal;HPM_P1;HPM_P2
2023/09/02 00:01:29;;;;;;;18.98;15.85;;;;;;;17.36;100.00;101579.78;5031095;28;20017;-67
2023/09/02 00:03:54;;;;;;;19.13;16.00;;;;;;;17.40;100.00;101581.84;5036412;28;20039;-67
2023/09/02 00:06:19;;;;;;;17.67;15.73;;;;;;;17.38;100.00;101580.41;5033759;28;20402;-67
2023/09/02 00:08:44;;;;;;;18.60;15.93;;;;;;;17.39;100.00;101576.69;5034053;28;20021;-67
2023/09/02 00:11:10;;;;;;;22.17;17.70;;;;;;;17.43;100.00;101572.56;5029519;28;20021;-67
2023/09/02 00:13:36;;;;;;;22.92;17.73;;;;;;;17.44;100.00;101575.06;5034369;28;20029;-68
2023/09/02 00:16:01;;;;;;;22.10;18.00;;;;;;;17.44;100.00;101569.69;5035794;28;20087;-67
2023/09/02 00:18:27;;;;;;;21.05;17.25;;;;;;;17.45;100.00;101565.16;5031887;28;20498;-67
2023/09/02 00:20:52;;;;;;;20.77;17.88;;;;;;;17.46;100.00;101577.53;5035645;28;20490;-67
2023/09/02 00:23:17;;;;;;;19.83;15.48;;;;;;;17.42;100.00;101576.28;5034869;28;20521;-67
2023/09/02 00:25:43;;;;;;;18.63;15.13;;;;;;;17.41;100.00;101583.50;5031926;28;20017;-67
2023/09/02 00:28:08;;;;;;;18.20;15.57;;;;;;;17.40;100.00;101581.84;5041501;28;20041;-67
2023/09/02 00:30:33;;;;;;;17.40;15.20;;;;;;;17.39;100.00;101582.88;5028038;28;20474;-67
2023/09/02 00:32:58;;;;;;;19.35;15.60;;;;;;;17.40;100.00;101597.13;5037754;28;20029;-67
2023/09/02 00:35:24;;;;;;;21.75;16.80;;;;;;;17.41;100.00;101593.44;5035835;28;20035;-67
2023/09/02 00:37:49;;;;;;;19.73;17.63;;;;;;;17.42;100.00;101592.41;5028923;28;20028;-67
2023/09/02 00:40:17;;;;;;;19.55;17.33;;;;;;;17.44;100.00;101595.72;5031648;28;20021;-67
2023/09/02 00:42:46;;;;;;;23.23;18.08;;;;;;;17.46;100.00;101591.81;5037353;28;20105;-67
2023/09/02 00:45:11;;;;;;;21.15;16.33;;;;;;;17.45;100.00;101584.78;5030211;28;20043;-68
2023/09/02 00:47:38;;;;;;;19.77;15.93;;;;;;;17.43;100.00;101584.16;5037586;28;20394;-68
2023/09/02 00:50:03;;;;;;;19.30;15.77;;;;;;;17.40;100.00;101589.91;5032518;28;20503;-67
2023/09/02 00:52:32;;;;;;;18.42;16.17;;;;;;;17.42;100.00;101581.66;5038963;28;20039;-67
2023/09/02 00:54:57;;;;;;;20.80;17.00;;;;;;;17.41;100.00;101588.88;5035542;28;20119;-67
2023/09/02 00:57:23;;;;;;;23.70;17.80;;;;;;;17.43;100.00;101594.88;5035466;28;20175;-67
2023/09/02 00:59:48;;;;;;;21.65;17.45;;;;;;;17.43;100.00;101589.53;5036629;28;20033;-67
2023/09/02 01:02:14;;;;;;;18.33;16.33;;;;;;;17.43;100.00;101584.16;5039782;28;20026;-67
2023/09/02 01:04:40;;;;;;;19.90;15.98;;;;;;;17.43;100.00;101580.63;5048324;28;20465;-67
2023/09/02 01:07:05;;;;;;;20.67;16.27;;;;;;;17.45;100.00;101582.09;5045701;28;20037;-67
2023/09/02 01:09:31;;;;;;;20.17;17.10;;;;;;;17.45;100.00;101584.78;5037883;28;20110;-67
2023/09/02 01:11:56;;;;;;;20.48;17.23;;;;;;;17.46;100.00;101589.13;5040094;28;20463;-67
2023/09/02 01:14:22;;;;;;;19.23;16.35;;;;;;;17.47;100.00;101579.22;5044071;28;20515;-67
2023/09/02 01:16:47;;;;;;;19.92;16.95;;;;;;;17.47;100.00;101585.41;5048322;28;20025;-67
2023/09/02 01:19:16;;;;;;;20.15;17.55;;;;;;;17.47;100.00;101596.16;5037518;28;20124;-67
2023/09/02 01:21:57;;;;;;;22.63;17.55;;;;;;;17.51;100.00;101585.84;5048683;28;20028;-67
2023/09/02 01:24:45;;;;;;;22.75;18.23;;;;;;;17.47;100.00;101598.00;5034404;28;20037;-67
2023/09/02 01:27:30;;;;;;;;;;;;;;;17.55;100.00;101609.41;5037808;28;20109;-67
2023/09/02 01:30:08;;;;;;;18.23;15.82;;;;;;;17.41;100.00;101604.16;5041956;28;19917;-67
2023/09/02 01:32:38;;;;;;;22.35;17.20;;;;;;;17.42;100.00;101603.97;5042927;28;20036;-67
2023/09/02 01:35:06;;;;;;;17.88;15.20;;;;;;;17.40;100.00;101602.50;5043862;28;20506;-67
2023/09/02 01:37:42;;;;;;;18.38;15.27;;;;;;;17.37;100.00;101614.47;5039655;28;20131;-67
2023/09/02 01:40:10;;;;;;;17.42;14.38;;;;;;;17.37;100.00;101611.78;5034282;28;20055;-67
2023/09/02 01:42:37;;;;;;;19.47;16.03;;;;;;;17.34;100.00;101606.78;5034840;28;20660;-67
2023/09/02 01:45:03;;;;;;;18.38;14.68;;;;;;;17.30;100.00;101609.03;5035477;28;20025;-67
2023/09/02 01:47:28;;;;;;;16.63;14.82;;;;;;;17.29;100.00;101604.69;5036461;28;20135;-67
2023/09/02 01:49:54;;;;;;;18.15;14.65;;;;;;;17.27;100.00;101603.22;5043682;28;20033;-67
2023/09/02 01:52:21;;;;;;;18.27;15.38;;;;;;;17.23;100.00;101608.16;5036976;28;20053;-67
2023/09/02 01:54:46;;;;;;;18.50;14.98;;;;;;;17.25;100.00;101613.34;5047042;28;20111;-67
2023/09/02 01:57:12;;;;;;;19.80;16.38;;;;;;;17.24;100.00;101622.41;5044734;28;20119;-67
2023/09/02 01:59:37;;;;;;;19.15;16.65;;;;;;;17.25;100.00;101622.22;5035351;28;20490;-67
2023/09/02 02:02:03;;;;;;;20.08;16.95;;;;;;;17.24;100.00;101620.56;5041612;28;20029;-67
2023/09/02 02:04:38;;;;;;;19.45;16.10;;;;;;;17.24;100.00;101620.56;5037894;28;20040;-67
2023/09/02 02:07:10;;;;;;;19.67;15.82;;;;;;;17.25;100.00;101624.91;5038245;28;20049;-67
2023/09/02 02:09:40;;;;;;;22.67;17.15;;;;;;;17.26;100.00;101621.19;5048823;28;20062;-67
2023/09/02 02:12:07;;;;;;;20.27;16.95;;;;;;;17.28;100.00;101623.69;5037501;28;20028;-67
2023/09/02 02:14:32;;;;;;;19.10;16.63;;;;;;;17.22;100.00;101617.25;5039377;28;20041;-68
2023/09/02 02:16:58;;;;;;;19.00;16.50;;;;;;;17.27;100.00;101627.41;5045501;28;20025;-67
2023/09/02 02:19:23;;;;;;;21.50;16.77;;;;;;;17.27;100.00;101624.72;5041460;28;20393;-67
2023/09/02 02:21:49;;;;;;;18.25;16.08;;;;;;;17.26;100.00;101631.09;5039786;28;20033;-67
2023/09/02 02:24:14;;;;;;;20.35;16.42;;;;;;;17.24;100.00;101636.66;5044619;28;20391;-67
2023/09/02 02:26:40;;;;;;;19.83;16.75;;;;;;;17.22;100.00;101636.03;5044568;28;20029;-67
2023/09/02 02:29:05;;;;;;;21.60;17.25;;;;;;;17.19;100.00;101641.78;5045700;28;20021;-68
2023/09/02 02:31:30;;;;;;;24.25;17.95;;;;;;;17.21;100.00;101638.91;5044703;28;20438;-67
2023/09/02 02:33:55;;;;;;;28.42;17.65;;;;;;;17.18;100.00;101632.09;5036012;28;20033;-67
2023/09/02 02:36:21;;;;;;;21.52;17.08;;;;;;;17.19;100.00;101643.66;5048275;28;20035;-68
2023/09/02 02:38:46;;;;;;;20.42;16.13;;;;;;;17.16;100.00;101631.44;5046105;28;20037;-67
2023/09/02 02:41:11;;;;;;;18.42;15.02;;;;;;;17.13;100.00;101633.69;5031742;28;20379;-67
2023/09/02 02:43:36;;;;;;;19.02;15.85;;;;;;;17.09;100.00;101632.44;5046346;28;20044;-67
2023/09/02 02:46:02;;;;;;;23.02;16.98;;;;;;;17.13;100.00;101631.03;5045945;28;20036;-67
2023/09/02 02:48:29;;;;;;;19.45;16.27;;;;;;;17.11;100.00;101641.13;5040124;28;20469;-67
2023/09/02 02:50:55;;;;;;;21.55;16.50;;;;;;;17.04;100.00;101639.19;5039078;28;20067;-67
2023/09/02 02:53:21;;;;;;;18.63;15.90;;;;;;;17.03;100.00;101642.88;5040974;28;20033;-67
2023/09/02 02:55:46;;;;;;;21.30;16.50;;;;;;;17.00;100.00;101637.09;5033951;28;20491;-67
2023/09/02 02:58:12;;;;;;;21.08;16.60;;;;;;;16.99;100.00;101638.94;5049843;28;20036;-68
2023/09/02 03:00:39;;;;;;;22.98;16.27;;;;;;;16.99;100.00;101644.31;5048492;28;20021;-67
2023/09/02 03:03:04;;;;;;;17.92;14.82;;;;;;;16.98;100.00;101641.81;5041752;28;20028;-67
2023/09/02 03:05:43;;;;;;;19.02;14.85;;;;;;;16.93;100.00;101642.41;5045559;28;20037;-68
2023/09/02 03:08:09;;;;;;;17.25;15.05;;;;;;;16.96;100.00;101641.19;5036062;28;20108;-67
2023/09/02 03:10:35;;;;;;;22.50;17.17;;;;;;;16.97;100.00;101638.31;5039925;28;20064;-67
2023/09/02 03:13:05;;;;;;;25.42;17.02;;;;;;;16.96;100.00;101633.13;5037102;28;20021;-67
2023/09/02 03:15:31;;;;;;;22.05;17.20;;;;;;;16.98;100.00;101631.09;5045344;28;20029;-67
2023/09/02 03:17:56;;;;;;;19.05;16.73;;;;;;;16.99;100.00;101632.75;5047072;28;20096;-67
2023/09/02 03:20:21;;;;;;;24.35;16.40;;;;;;;16.97;100.00;101642.84;5041394;28;20025;-67
2023/09/02 03:22:46;;;;;;;26.85;15.73;;;;;;;16.95;100.00;101637.66;5029764;28;20032;-68
2023/09/02 03:25:12;;;;;;;19.15;15.13;;;;;;;16.93;100.00;101637.03;5033431;28;20071;-67
2023/09/02 03:27:41;;;;;;;21.50;15.82;;;;;;;16.92;100.00;101642.59;5041382;28;20020;-67
2023/09/02 03:30:07;;;;;;;31.83;16.83;;;;;;;16.88;100.00;101628.75;5038933;28;20445;-67
2023/09/02 03:32:32;;;;;;;34.20;16.80;;;;;;;16.83;100.00;101639.22;5044230;28;20048;-67
2023/09/02 03:34:58;;;;;;;70.93;16.17;;;;;;;16.82;100.00;101634.88;5039393;28;20021;-67
2023/09/02 03:37:24;;;;;;;25.05;17.65;;;;;;;16.83;100.00;101641.91;5037533;28;20499;-67
2023/09/02 03:39:49;;;;;;;25.30;17.63;;;;;;;16.82;100.00;101637.56;5044611;28;20059;-67
2023/09/02 03:42:14;;;;;;;28.63;16.13;;;;;;;16.78;100.00;101641.66;5047573;28;20040;-67
2023/09/02 03:44:39;;;;;;;39.50;16.58;;;;;;;16.75;100.00;101638.50;5047756;28;20021;-67
2023/09/02 03:47:05;;;;;;;21.90;16.63;;;;;;;16.74;100.00;101645.72;5036782;28;20043;-67
2023/09/02 03:49:30;;;;;;;18.52;15.93;;;;;;;16.74;100.00;101648.41;5037143;28;20725;-68
2023/09/02 03:51:55;;;;;;;20.38;16.52;;;;;;;16.76;100.00;101651.72;5044282;28;20021;-67
2023/09/02 03:54:21;;;;;;;25.83;17.30;;;;;;;16.80;100.00;101647.66;5033899;28;20040;-67
2023/09/02 03:56:46;;;;;;;44.47;19.20;;;;;;;16.83;100.00;101652.63;5037284;28;20029;-67
2023/09/02 03:59:11;;;;;;;21.65;17.30;;;;;;;16.84;100.00;101653.47;5044849;28;20399;-67
2023/09/02 04:01:36;;;;;;;33.45;17.50;;;;;;;16.82;100.00;101648.28;5046292;28;20009;-67
2023/09/02 04:04:02;;;;;;;21.25;17.10;;;;;;;16.86;100.00;101652.25;5042989;28;20161;-68
2023/09/02 04:06:27;;;;;;;25.30;16.65;;;;;;;16.85;100.00;101653.28;5034112;28;20025;-67
2023/09/02 04:08:52;;;;;;;33.30;17.13;;;;;;;16.83;100.00;101646.44;5043568;28;20020;-67
2023/09/02 04:11:18;;;;;;;20.45;15.73;;;;;;;16.83;100.00;101657.16;5038138;28;20029;-67
2023/09/02 04:13:43;;;;;;;20.98;16.45;;;;;;;16.81;100.00;101657.38;5040787;28;20047;-67
2023/09/02 04:16:10;;;;;;;20.30;17.40;;;;;;;16.78;100.00;101660.44;5047334;28;20486;-67
2023/09/02 04:18:36;;;;;;;23.15;16.88;;;;;;;16.75;100.00;101655.41;5047143;28;20055;-67
2023/09/02 04:21:03;;;;;;;21.77;16.88;;;;;;;16.76;100.00;101661.63;5040570;28;20617;-68
2023/09/02 04:23:29;;;;;;;18.25;16.08;;;;;;;16.77;100.00;101658.78;5029505;28;20294;-67
2023/09/02 04:25:57;;;;;;;22.33;15.70;;;;;;;16.75;100.00;101662.63;5027724;28;20356;-68
2023/09/02 04:28:22;;;;;;;21.90;15.88;;;;;;;16.73;100.00;101660.97;5043270;28;20025;-67
2023/09/02 04:30:48;;;;;;;19.27;15.55;;;;;;;16.76;100.00;101666.97;5039953;28;20531;-67
2023/09/02 04:33:14;;;;;;;20.00;15.05;;;;;;;16.73;100.00;101671.72;5042867;28;20025;-67
2023/09/02 04:35:42;;;;;;;18.60;15.30;;;;;;;16.71;100.00;101672.91;5027894;28;20475;-67
2023/09/02 04:38:08;;;;;;;92.05;15.35;;;;;;;16.66;100.00;101672.66;5039374;28;20478;-67
2023/09/02 04:40:38;;;;;;;17.23;14.40;;;;;;;16.65;100.00;101684.38;5042455;28;20020;-67
2023/09/02 04:43:04;;;;;;;21.15;15.15;;;;;;;16.62;100.00;101682.09;5043756;28;20636;-67
2023/09/02 04:45:33;;;;;;;34.00;13.60;;;;;;;16.58;100.00;101681.63;5045220;28;20039;-67
2023/09/02 04:48:00;;;;;;;42.72;13.38;;;;;;;16.58;100.00;101680.81;5039470;28;20025;-67
2023/09/02 04:50:25;;;;;;;15.20;12.52;;;;;;;16.59;100.00;101680.63;5039071;28;20025;-67
2023/09/02 04:52:51;;;;;;;16.70;13.07;;;;;;;16.58;100.00;101680.81;5049981;28;20021;-67
2023/09/02 04:55:16;;;;;;;14.23;12.57;;;;;;;16.57;100.00;101682.66;5038144;28;20490;-68
2023/09/02 04:57:42;;;;;;;17.13;12.35;;;;;;;16.54;100.00;101684.88;5047999;28;20024;-67
2023/09/02 05:00:09;;;;;;;27.63;11.40;;;;;;;16.47;100.00;101682.09;5037854;28;20017;-67
2023/09/02 05:02:34;;;;;;;22.38;11.77;;;;;;;16.45;100.00;101686.00;5038942;28;20029;-67
2023/09/02 05:04:59;;;;;;;14.10;11.00;;;;;;;16.47;100.00;101681.28;5039357;28;20421;-67
2023/09/02 05:07:25;;;;;;;19.50;12.43;;;;;;;16.44;100.00;101685.16;5038928;28;20025;-67
2023/09/02 05:09:51;;;;;;;46.47;11.82;;;;;;;16.42;100.00;101682.69;5035949;28;20024;-67
2023/09/02 05:12:16;;;;;;;78.18;11.75;;;;;;;16.39;100.00;101671.50;5027410;28;20037;-67
2023/09/02 05:14:41;;;;;;;143.30;13.50;;;;;;;16.38;100.00;101678.72;5041956;28;20030;-67
2023/09/02 05:17:07;;;;;;;143.60;12.27;;;;;;;16.35;100.00;101691.66;5044498;28;20032;-68
2023/09/02 05:19:32;;;;;;;98.93;12.02;;;;;;;16.32;100.00;101692.88;5037598;28;20391;-67
2023/09/02 05:21:57;;;;;;;80.80;12.40;;;;;;;16.31;100.00;101693.91;5041086;28;20028;-67
2023/09/02 05:24:23;;;;;;;78.22;11.63;;;;;;;16.28;100.00;101696.13;5032143;28;20021;-67
2023/09/02 05:26:48;;;;;;;108.93;12.23;;;;;;;16.25;100.00;101697.34;5040299;28;20029;-67
2023/09/02 05:29:14;;;;;;;60.15;11.63;;;;;;;16.25;100.00;101697.34;5044898;28;20363;-67
2023/09/02 05:31:39;;;;;;;46.85;11.38;;;;;;;16.25;100.00;101702.69;5039529;28;20509;-68
2023/09/02 05:34:04;;;;;;;56.60;10.73;;;;;;;16.20;100.00;101715.00;5038531;28;20034;-67
2023/09/02 05:36:30;;;;;;;53.38;12.02;;;;;;;16.24;100.00;101729.69;5030503;28;20041;-67
2023/09/02 05:38:55;;;;;;;34.90;11.65;;;;;;;16.25;100.00;101723.31;5040618;28;20021;-67
2023/09/02 05:41:20;;;;;;;49.03;11.10;;;;;;;16.28;100.00;101722.94;5031166;28;20029;-67
2023/09/02 05:43:45;;;;;;;37.35;11.93;;;;;;;16.27;100.00;101719.41;5035766;28;20025;-67
2023/09/02 05:46:11;;;;;;;55.70;12.35;;;;;;;16.29;100.00;101729.94;5036345;28;20021;-67
2023/09/02 05:48:36;;;;;;;30.20;11.70;;;;;;;16.32;100.00;101729.56;5038577;28;20023;-67
2023/09/02 05:51:01;;;;;;;57.75;12.27;;;;;;;16.34;100.00;101744.47;5043912;28;20020;-67
2023/09/02 05:53:27;;;;;;;73.63;13.63;;;;;;;16.37;100.00;101737.88;5030625;28;20033;-67
2023/09/02 05:55:54;;;;;;;73.38;14.88;;;;;;;16.39;100.00;101736.69;5034536;28;20063;-67
2023/09/02 05:58:19;;;;;;;78.88;14.50;;;;;;;16.40;100.00;101738.34;5033811;28;20057;-67
2023/09/02 06:00:45;;;;;;;58.20;15.05;;;;;;;16.42;100.00;101728.25;5034010;28;20049;-67
2023/09/02 06:03:10;;;;;;;60.17;14.43;;;;;;;16.39;100.00;101736.69;5035436;28;20814;-67
2023/09/02 06:05:35;;;;;;;47.15;15.35;;;;;;;16.41;100.00;101739.16;5033709;28;20066;-67
2023/09/02 06:08:00;;;;;;;61.25;15.32;;;;;;;16.43;100.00;101742.50;5030296;28;20029;-67
2023/09/02 06:10:26;;;;;;;35.10;15.57;;;;;;;16.47;100.00;101748.31;5031805;28;20482;-67
2023/09/02 06:12:51;;;;;;;36.47;16.15;;;;;;;16.49;100.00;101754.34;5030612;28;20052;-67
2023/09/02 06:15:16;;;;;;;34.03;16.38;;;;;;;16.51;100.00;101757.66;5031026;28;20639;-67
2023/09/02 06:17:41;;;;;;;55.05;16.38;;;;;;;16.51;100.00;101752.31;5030118;28;20025;-67
2023/09/02 06:20:07;;;;;;;33.47;16.88;;;;;;;16.54;100.00;101763.50;5030868;28;20045;-67
2023/09/02 06:22:32;;;;;;;40.45;16.92;;;;;;;16.57;100.00;101765.78;5042201;28;20028;-67
2023/09/02 06:24:59;;;;;;;25.13;17.45;;;;;;;16.63;100.00;101764.22;5037392;28;20032;-67
2023/09/02 06:27:24;;;;;;;26.88;18.38;;;;;;;16.68;100.00;101767.19;5037134;28;20444;-67
2023/09/02 06:29:49;;;;;;;44.40;18.65;;;;;;;16.68;100.00;101768.00;5043302;28;20065;-67
2023/09/02 06:32:15;;;;;;;37.63;18.23;;;;;;;16.71;100.00;101785.56;5040079;28;20025;-67
2023/09/02 06:34:40;;;;;;;51.30;18.27;;;;;;;16.74;100.00;101782.53;5036406;28;20033;-67
2023/09/02 06:37:05;;;;;;;38.25;19.10;;;;;;;16.79;100.00;101788.19;5028833;28;20028;-67
2023/09/02 06:39:31;;;;;;;34.60;17.70;;;;;;;16.79;100.00;101785.50;5030700;28;20053;-67
2023/09/02 06:41:56;;;;;;;28.00;19.08;;;;;;;16.82;100.00;101793.16;5039213;28;20028;-67
2023/09/02 06:44:21;;;;;;;26.08;19.15;;;;;;;16.85;100.00;101791.94;5031008;28;20025;-67
2023/09/02 06:46:47;;;;;;;30.25;19.92;;;;;;;16.87;100.00;101793.41;5035183;28;20542;-67
2023/09/02 06:49:12;;;;;;;24.25;18.40;;;;;;;16.92;100.00;101808.94;5041950;28;20013;-67
2023/09/02 06:51:38;;;;;;;22.40;18.00;;;;;;;16.94;100.00;101812.28;5034365;28;20083;-67
2023/09/02 06:54:03;;;;;;;20.17;16.60;;;;;;;16.94;100.00;101815.78;5035876;28;20044;-67
2023/09/02 06:56:28;;;;;;;21.33;17.88;;;;;;;16.99;100.00;101817.91;5030749;28;20029;-67
2023/09/02 06:58:53;;;;;;;24.20;17.60;;;;;;;17.03;100.00;101824.56;5031493;28;20052;-67
2023/09/02 07:01:23;;;;;;;23.13;16.98;;;;;;;17.04;100.00;101837.78;5032716;28;20029;-67
2023/09/02 07:03:49;;;;;;;20.52;16.60;;;;;;;17.07;100.00;101833.09;5032423;28;20033;-67
2023/09/02 07:06:15;;;;;;;22.27;17.00;;;;;;;17.10;100.00;101840.75;5031617;28;20016;-67
2023/09/02 07:08:41;;;;;;;22.13;16.88;;;;;;;17.08;100.00;101840.94;5029330;28;20037;-67
2023/09/02 07:11:09;;;;;;;21.70;17.55;;;;;;;17.11;100.00;101842.41;5030017;28;20033;-67
2023/09/02 07:13:34;;;;;;;20.92;17.35;;;;;;;17.14;100.00;101848.22;5028982;28;20491;-67
2023/09/02 07:16:00;;;;;;;27.15;18.30;;;;;;;17.16;100.00;101853.41;5039602;28;20028;-67
2023/09/02 07:18:25;;;;;;;24.73;18.85;;;;;;;17.19;100.00;101847.66;5035129;28;20033;-67
2023/09/02 07:20:51;;;;;;;36.13;19.52;;;;;;;17.24;100.00;101858.66;5030913;28;20022;-68
2023/09/02 07:23:16;;;;;;;36.20;19.90;;;;;;;17.27;100.00;101852.91;5036042;28;20027;-67
2023/09/02 07:25:41;;;;;;;49.65;19.90;;;;;;;17.32;100.00;101855.84;5037017;28;20025;-67
2023/09/02 07:28:06;;;;;;;37.75;19.48;;;;;;;17.38;100.00;101860.47;5030290;28;20018;-67
2023/09/02 07:30:32;;;;;;;32.00;19.63;;;;;;;17.42;100.00;101869.81;5040611;28;20104;-67
2023/09/02 07:32:57;;;;;;;46.60;19.65;;;;;;;17.43;100.00;101873.34;5031084;28;20028;-67
2023/09/02 07:35:23;;;;;;;82.57;20.13;;;;;;;17.41;100.00;101873.53;5034706;28;20049;-67
2023/09/02 07:37:48;;;;;;;84.18;20.45;;;;;;;17.39;100.00;101872.88;5033686;28;20052;-67
2023/09/02 07:40:13;;;;;;;90.22;20.75;;;;;;;17.40;100.00;101879.91;5034698;28;20028;-68
2023/09/02 07:42:38;;;;;;;34.50;20.65;;;;;;;17.44;100.00;101891.94;5034807;28;20483;-67
2023/09/02 07:45:04;;;;;;;53.97;20.80;;;;;;;17.44;100.00;101891.94;5035449;28;20017;-67
2023/09/02 07:47:29;;;;;;;40.08;20.98;;;;;;;17.46;100.00;101899.81;5036814;28;20059;-67
2023/09/02 07:49:55;;;;;;;38.70;21.17;;;;;;;17.48;100.00;101898.59;5039978;28;20367;-67
2023/09/02 07:52:20;;;;;;;48.20;21.70;;;;;;;17.52;100.00;101899.03;5032413;28;20030;-67
2023/09/02 07:54:46;;;;;;;64.20;21.67;;;;;;;17.49;100.00;101889.50;5036829;28;20021;-67
2023/09/02 07:57:11;;;;;;;51.08;22.08;;;;;;;17.54;100.00;101892.44;5030936;28;20540;-68
2023/09/02 07:59:36;;;;;;;33.83;22.30;;;;;;;17.56;100.00;101893.09;5034245;28;20033;-67
2023/09/02 08:02:02;;;;;;;30.08;21.95;;;;;;;17.61;100.00;101897.88;5030617;28;21646;-68
2023/09/02 08:04:27;;;;;;;34.80;21.75;;;;;;;17.63;100.00;101893.97;5040937;28;20021;-67
2023/09/02 08:06:52;;;;;;;32.13;22.23;;;;;;;17.66;100.00;101890.13;5034844;28;20079;-67
2023/09/02 08:09:19;;;;;;;40.65;23.00;;;;;;;17.69;100.00;101895.13;5035125;28;20036;-67
2023/09/02 08:11:44;;;;;;;29.08;22.30;;;;;;;17.72;100.00;101907.34;5031289;28;20018;-67
2023/09/02 08:14:09;;;;;;;31.52;22.00;;;;;;;17.75;100.00;101902.41;5035352;28;20021;-67
2023/09/02 08:16:36;;;;;;;42.88;22.27;;;;;;;17.79;100.00;101914.44;5040051;28;20529;-67
2023/09/02 08:19:01;;;;;;;28.80;22.75;;;;;;;17.84;100.00;101920.06;5036395;28;20778;-68
2023/09/02 08:21:26;;;;;;;29.23;22.05;;;;;;;17.88;100.00;101917.81;5035485;28;20103;-67
2023/09/02 08:23:52;;;;;;;26.65;21.40;;;;;;;17.89;100.00;101914.09;5027733;28;20022;-67
2023/09/02 08:26:18;;;;;;;26.52;21.60;;;;;;;17.90;100.00;101908.53;5030897;28;20025;-67
2023/09/02 08:28:44;;;;;;;29.42;21.13;;;;;;;17.91;100.00;101904.00;5027537;28;20049;-68
2023/09/02 08:31:12;;;;;;;29.10;21.92;;;;;;;17.93;100.00;101900.13;5028322;28;20024;-68
2023/09/02 08:33:38;;;;;;;26.47;21.87;;;;;;;17.98;100.00;101909.47;5031982;28;20043;-68
2023/09/02 08:36:04;;;;;;;28.85;22.83;;;;;;;17.95;100.00;101919.56;5039961;28;20374;-68
2023/09/02 08:38:29;;;;;;;26.83;21.23;;;;;;;17.96;100.00;101917.72;5037055;28;20036;-68
2023/09/02 08:40:57;;;;;;;31.15;22.30;;;;;;;17.95;100.00;101935.69;5031240;28;20057;-67
2023/09/02 08:43:25;;;;;;;28.55;22.05;;;;;;;17.97;100.00;101932.81;5035061;28;20031;-68
2023/09/02 08:45:53;;;;;;;28.40;22.50;;;;;;;17.97;100.00;101927.44;5032256;28;20108;-68
2023/09/02 08:48:23;;;;;;;27.75;21.85;;;;;;;17.98;100.00;101931.78;5042471;28;20716;-68
2023/09/02 08:50:49;;;;;;;28.10;21.77;;;;;;;18.03;100.00;101934.72;5036436;28;20056;-67
2023/09/02 08:53:15;;;;;;;30.45;23.15;;;;;;;18.07;100.00;101936.00;5033462;28;20021;-67
2023/09/02 08:55:41;;;;;;;30.42;23.75;;;;;;;18.14;100.00;101941.44;5039723;28;20025;-67
2023/09/02 08:58:07;;;;;;;31.05;23.15;;;;;;;18.17;100.00;101947.25;5027692;28;20384;-67
2023/09/02 09:00:35;;;;;;;29.98;23.90;;;;;;;18.20;100.00;101954.09;5028095;28;20026;-68
2023/09/02 09:03:02;;;;;;;29.40;23.27;;;;;;;18.18;100.00;101951.59;5030307;28;20083;-68
2023/09/02 09:05:28;;;;;;;29.35;23.77;;;;;;;18.25;100.00;101954.38;5038275;28;20029;-67
2023/09/02 09:07:53;;;;;;;31.23;23.55;;;;;;;18.24;100.00;101948.16;5027777;28;20083;-67
2023/09/02 09:10:21;;;;;;;30.80;24.92;;;;;;;18.29;100.00;101955.63;5040561;28;20033;-68
2023/09/02 09:12:49;;;;;;;32.78;26.27;;;;;;;18.34;100.00;101955.06;5042459;28;20074;-68
2023/09/02 09:15:17;;;;;;;33.25;26.00;;;;;;;18.34;100.00;101963.97;5043651;28;20049;-68
2023/09/02 09:17:42;;;;;;;33.10;25.48;;;;;;;18.39;100.00;101955.28;5037739;28;20559;-67
2023/09/02 09:20:08;;;;;;;36.42;26.52;;;;;;;18.49;100.00;101953.91;5031312;28;20467;-68
2023/09/02 09:22:38;;;;;;;33.25;26.38;;;;;;;18.58;100.00;101957.31;5033501;28;20040;-68
2023/09/02 09:25:04;;;;;;;34.33;26.58;;;;;;;18.67;100.00;101961.53;5032740;28;20044;-68
2023/09/02 09:27:29;;;;;;;32.38;26.13;;;;;;;18.75;100.00;101960.56;5035801;28;20237;-68
2023/09/02 09:29:54;;;;;;;30.95;25.65;;;;;;;18.80;100.00;101966.19;5041138;28;20017;-68
2023/09/02 09:32:22;;;;;;;32.33;25.80;;;;;;;18.86;100.00;101968.09;5042776;28;20398;-68
2023/09/02 09:34:47;;;;;;;32.53;25.73;;;;;;;18.88;100.00;101971.41;5037430;28;20024;-68
2023/09/02 09:37:14;;;;;;;30.42;25.90;;;;;;;18.92;100.00;101978.06;5036025;28;20029;-67
2023/09/02 09:39:41;;;;;;;30.83;25.70;;;;;;;18.99;100.00;101989.69;5032522;28;20022;-68
2023/09/02 09:42:07;;;;;;;32.20;25.80;;;;;;;19.08;100.00;101998.44;5032921;28;20105;-68
2023/09/02 09:44:33;;;;;;;28.63;25.10;;;;;;;19.10;100.00;101999.09;5043644;28;20099;-68
2023/09/02 09:46:58;;;;;;;30.90;25.48;;;;;;;19.11;100.00;101998.06;5042353;28;20032;-68
2023/09/02 09:49:31;;;;;;;28.58;25.10;;;;;;;19.14;100.00;102005.75;5038585;28;20029;-67
2023/09/02 09:51:59;;;;;;;30.58;25.52;;;;;;;19.14;100.00;102008.44;5030700;28;20027;-68
2023/09/02 09:54:37;;;;;;;29.00;24.77;;;;;;;19.18;100.00;101994.38;5036735;28;20098;-68
2023/09/02 09:57:05;;;;;;;29.40;24.40;;;;;;;19.18;100.00;102001.63;5031093;28;20031;-68
2023/09/02 09:59:30;;;;;;;29.65;25.38;;;;;;;19.22;100.00;102010.97;5033532;28;20276;-68
2023/09/02 10:01:57;;;;;;;29.20;24.85;;;;;;;19.23;100.00;102018.00;5041137;28;20021;-67
2023/09/02 10:04:22;;;;;;;30.42;26.17;;;;;;;19.26;100.00;102019.47;5038089;28;20029;-68
2023/09/02 10:06:48;;;;;;;28.48;24.92;;;;;;;19.33;100.00;102018.47;5030354;28;20021;-68
2023/09/02 10:09:13;;;;;;;28.98;25.08;;;;;;;19.36;100.00;102017.22;5043872;28;20021;-68
2023/09/02 10:11:38;;;;;;;28.30;24.90;;;;;;;19.40;100.00;102018.53;5035678;28;20390;-68
2023/09/02 10:14:04;;;;;;;27.60;24.52;;;;;;;19.39;100.00;102016.88;5036725;28;20534;-68
2023/09/02 10:16:33;;;;;;;27.33;24.33;;;;;;;19.40;100.00;102029.31;5044105;28;20029;-68
2023/09/02 10:18:58;;;;;;;29.42;25.65;;;;;;;19.41;100.00;102022.88;5034253;28;20064;-68
2023/09/02 10:21:29;;;;;;;30.55;24.75;;;;;;;19.47;100.00;102028.28;5029793;28;20045;-68
2023/09/02 10:23:59;;;;;;;29.58;26.20;;;;;;;19.49;100.00;102039.69;5030311;28;20030;-68
2023/09/02 10:26:32;;;;;;;29.17;24.92;;;;;;;19.55;100.00;102042.66;5031600;28;20682;-68
2023/09/02 10:29:00;;;;;;;28.42;25.08;;;;;;;19.48;100.00;102035.34;5030527;28;20028;-68
2023/09/02 10:31:32;;;;;;;28.73;25.67;;;;;;;19.52;100.00;102038.47;5030896;28;20018;-68
2023/09/02 10:34:03;;;;;;;27.52;24.30;;;;;;;19.56;100.00;102041.63;5036543;28;20115;-68
2023/09/02 10:36:32;;;;;;;28.58;25.23;;;;;;;19.65;100.00;102048.50;5030205;28;20025;-68
2023/09/02 10:39:01;;;;;;;29.50;26.02;;;;;;;19.76;100.00;102048.75;5032394;28;20071;-68
2023/09/02 10:41:28;;;;;;;29.33;25.33;;;;;;;19.82;100.00;102055.22;5037890;28;20108;-68
2023/09/02 10:43:55;;;;;;;28.08;24.85;;;;;;;19.84;100.00;102061.22;5035681;28;20022;-68
2023/09/02 10:46:20;;;;;;;30.05;25.50;;;;;;;19.92;100.00;102062.91;5034743;28;20025;-68
2023/09/02 10:48:48;;;;;;;27.85;24.15;;;;;;;19.94;100.00;102064.34;5039443;28;20046;-66
2023/09/02 10:51:14;;;;;;;29.15;24.55;;;;;;;19.94;100.00;102056.28;5034445;28;20682;-66
2023/09/02 10:53:48;;;;;;;26.63;23.70;;;;;;;19.96;99.98;102061.50;5033457;28;20093;-66
2023/09/02 10:56:34;;;;;;;26.63;23.73;;;;;;;20.02;99.71;102061.50;5031524;28;20071;-65
2023/09/02 10:59:01;;;;;;;25.98;23.13;;;;;;;20.02;99.53;102064.19;5033856;28;20502;-65